Flight Track Log - Related Links

Times and Time Zones

All times are in EDT time to prevent confusion due to time zone crossing. See the N4757T flight status page for this flight to view local times or setup timezone preferences in your user account.

Time Position Orientation Groundspeed Altitude Reporting Facility
EDT Latitude Longitude Course Direction KTS MPH feet Rate Location/Type
Sun 03:46:42 PM 46.0667 -67.8519 218° Southwest 133 153 2,900  Level Boston Center
Sun 03:47:54 PM 46.0489 -67.8803 228° Southwest 113 130 3,700 773 Climbing Boston Center
Sun 03:48:54 PM 46.0231 -67.9122 221° Southwest 107 123 4,600 800 Climbing Boston Center
Sun 03:49:00 PM 45.9583 -67.9584 215° Southwest  Level FlightAware Approximate
Sun 03:49:54 PM 46.0011 -67.9408 222° Southwest 107 123 5,300  Level Boston Center
Sun 03:50:00 PM 45.9317 -67.9871 218° Southwest  Level FlightAware Approximate
Sun 03:50:54 PM 45.9814 -67.9661 222° Southwest 107 123 5,900  Level Boston Center
Sun 03:51:54 PM 45.9575 -67.9981 223° Southwest 107 123 6,100 100 Climbing Boston Center
Sun 03:52:54 PM 45.9297 -68.0331 221° Southwest 120 138 6,100  Level Boston Center
Sun 03:53:54 PM 45.8953 -68.0567 206° Southwest 131 151 6,100 -50 Level Boston Center
Sun 03:54:54 PM 45.8628 -68.0831 209° Southwest 136 157 6,000  Descending Boston Center
Sun 03:55:54 PM 45.8308 -68.1153 215° Southwest 136 157 6,100  Climbing Boston Center
Sun 03:56:54 PM 45.7986 -68.1475 215° Southwest 141 162 6,000 -50 Descending Boston Center
Sun 03:57:54 PM 45.7664 -68.1797 215° Southwest 141 162 6,000  Level Boston Center
Sun 03:58:54 PM 45.7386 -68.2175 224° Southwest 141 162 6,000  Level Boston Center
Sun 03:59:54 PM 45.7111 -68.2611 228° Southwest 146 168 6,000 50 Level Boston Center
Sun 04:00:54 PM 45.6911 -68.2892 224° Southwest 146 168 6,100 50 Climbing Boston Center
Sun 04:01:54 PM 45.6531 -68.3275 215° Southwest 146 168 6,100 -50 Level Boston Center
Sun 04:02:54 PM 45.6208 -68.3597 215° Southwest 140 161 6,000 -45 Descending Boston Center
Sun 04:04:06 PM 45.5886 -68.3917 215° Southwest 145 167 6,000  Level Boston Center
Sun 04:05:06 PM 45.5503 -68.4269 213° Southwest 145 167 6,000  Level Boston Center
Sun 04:06:06 PM 45.5200 -68.4586 216° Southwest 145 167 6,000  Level Boston Center
Sun 04:07:06 PM 45.4900 -68.4903 217° Southwest 145 167 6,000  Level Boston Center
Sun 04:08:06 PM 45.4556 -68.5225 213° Southwest 150 173 6,000  Level Boston Center
Sun 04:09:06 PM 45.4275 -68.5597 223° Southwest 150 173 6,000 50 Level Boston Center
Sun 04:10:06 PM 45.4039 -68.5997 230° Southwest 145 167 6,100 50 Climbing Boston Center
Sun 04:11:06 PM 45.3717 -68.6344 217° Southwest 145 167 6,100  Level Boston Center
Sun 04:12:06 PM 45.3475 -68.6567 213° Southwest 145 167 6,100 -50 Level Boston Center
Sun 04:13:06 PM 45.3111 -68.6917 214° Southwest 145 167 6,000  Descending Boston Center
Sun 04:14:06 PM 45.2786 -68.7172 209° Southwest 145 167 6,100 50 Climbing Boston Center
Sun 04:15:06 PM 45.2464 -68.7519 217° Southwest 145 167 6,100 -50 Level Boston Center
Sun 04:16:06 PM 45.2161 -68.7833 216° Southwest 145 167 6,000  Descending Boston Center
Sun 04:17:18 PM 45.1903 -68.8231 227° Southwest 145 167 6,100  Climbing Boston Center
Sun 04:18:18 PM 45.1517 -68.8581 213° Southwest 145 167 6,000 -50 Descending Boston Center
Sun 04:19:18 PM 45.1194 -68.8922 217° Southwest 150 173 6,000 50 Level Boston Center
Sun 04:20:18 PM 45.0936 -68.9292 225° Southwest 145 167 6,100  Climbing Boston Center
Sun 04:21:18 PM 45.0611 -68.9606 214° Southwest 145 167 6,000  Descending Boston Center
Sun 04:23:00 PM 45.0134 -69.0086 215° Southwest  Level FlightAware Approximate
Sun 04:30:00 PM 44.8165 -69.2053 215° Southwest  Level FlightAware Approximate
Sun 04:31:00 PM 44.7884 -69.2333 215° Southwest  Level FlightAware Approximate
Sun 04:32:00 PM 44.7603 -69.2613 215° Southwest  Level FlightAware Approximate
Sun 04:33:00 PM 44.7321 -69.2893 215° Southwest  Level FlightAware Approximate
Sun 04:34:00 PM 44.7039 -69.3172 215° Southwest  Level FlightAware Approximate
Sun 04:35:00 PM 44.6758 -69.3451 215° Southwest  Level FlightAware Approximate
Sun 04:36:00 PM 44.6476 -69.3729 215° Southwest  Level FlightAware Approximate
Sun 04:37:00 PM 44.6194 -69.4008 215° Southwest  Level FlightAware Approximate
Sun 04:38:00 PM 44.5912 -69.4286 215° Southwest  Level FlightAware Approximate
Sun 04:39:00 PM 44.5630 -69.4564 215° Southwest  Level FlightAware Approximate
Sun 04:40:00 PM 44.5348 -69.4841 215° Southwest  Level FlightAware Approximate
Sun 04:41:00 PM 44.5066 -69.5118 215° Southwest  Level FlightAware Approximate
Sun 04:42:00 PM 44.4784 -69.5395 215° Southwest  Level FlightAware Approximate
Sun 04:43:00 PM 44.4501 -69.5672 215° Southwest  Level FlightAware Approximate
Sun 04:44:00 PM 44.4219 -69.5949 215° Southwest  Level FlightAware Approximate
Sun 04:45:00 PM 44.3940 -69.6231 216° Southwest  Level FlightAware Approximate
Sun 04:46:00 PM 44.3662 -69.6515 216° Southwest  Level FlightAware Approximate
Sun 04:47:00 PM 44.3383 -69.6799 216° Southwest  Level FlightAware Approximate
Sun 04:48:00 PM 44.3105 -69.7082 216° Southwest  Level FlightAware Approximate
Sun 04:49:00 PM 44.2826 -69.7365 216° Southwest  Level FlightAware Approximate
Sun 04:50:00 PM 44.2547 -69.7648 216° Southwest  Level FlightAware Approximate
Sun 04:51:00 PM 44.2269 -69.7931 216° Southwest  Level FlightAware Approximate
Sun 04:52:00 PM 44.1990 -69.8213 216° Southwest  Level FlightAware Approximate
Sun 04:53:00 PM 44.1711 -69.8495 216° Southwest  Level FlightAware Approximate
Sun 04:54:00 PM 44.1432 -69.8777 216° Southwest  Level FlightAware Approximate
Sun 04:55:00 PM 44.1153 -69.9058 216° Southwest  Level FlightAware Approximate
Sun 04:56:00 PM 44.0874 -69.9340 216° Southwest  Level FlightAware Approximate
Sun 04:57:00 PM 44.0595 -69.9621 216° Southwest  Level FlightAware Approximate
Sun 04:58:00 PM 44.0316 -69.9901 216° Southwest  Level FlightAware Approximate
Sun 04:59:00 PM 44.0036 -70.0182 216° Southwest  Level FlightAware Approximate
Sun 05:00:00 PM 43.9757 -70.0462 216° Southwest  Level FlightAware Approximate
Sun 05:01:00 PM 43.9527 -70.0803 227° Southwest  Level Estimated
Sun 05:02:00 PM 43.9298 -70.1144 227° Southwest  Level Estimated
Sun 05:03:00 PM 43.9068 -70.1485 227° Southwest  Level Estimated
Sun 05:04:00 PM 43.8838 -70.1825 227° Southwest  Level Estimated
Sun 05:05:00 PM 43.8608 -70.2166 227° Southwest  Level Estimated
Sun 05:06:00 PM 43.8378 -70.2505 227° Southwest  Level Estimated
Sun 05:07:00 PM 43.8148 -70.2845 227° Southwest  Level Estimated
Sun 05:08:00 PM 43.7917 -70.3185 227° Southwest  Level Estimated
Sun 05:09:00 PM 43.7687 -70.3524 227° Southwest  Level Estimated
Sun 05:10:00 PM 43.7456 -70.3863 227° Southwest  Level Estimated
Sun 05:11:00 PM 43.7226 -70.4201 227° Southwest  Level Estimated
Sun 05:12:00 PM 43.6897 -70.4395 203° Southwest  Level FlightAware Approximate
Sun 05:13:00 PM 43.6569 -70.4589 203° Southwest  Level FlightAware Approximate
Sun 05:14:00 PM 43.6240 -70.4783 203° Southwest  Level FlightAware Approximate
Sun 05:14:05 PM 43.4833 -70.5333 203° Southwest 150 173 6,100  Level KA90
Sun 05:15:00 PM 43.5911 -70.4977 203° Southwest  Level FlightAware Approximate
Sun 05:15:42 PM 43.4167 -70.5333 180° South 150 173 6,000  Level KA90
Sun 05:16:00 PM 43.5583 -70.5170 203° Southwest  Level FlightAware Approximate
Sun 05:16:35 PM 43.3833 -70.5333 180° South 145 167 6,000  Level KA90
Sun 05:17:00 PM 43.5254 -70.5363 203° Southwest  Level FlightAware Approximate
Sun 05:17:41 PM 43.3333 -70.5500 194° South 141 162 6,000  Level KA90
Sun 05:18:00 PM 43.4925 -70.5556 203° Southwest  Level FlightAware Approximate
Sun 05:18:41 PM 43.3167 -70.5833 236° Southwest 135 155 5,900  Level KA90
Sun 05:19:00 PM 43.4596 -70.5749 203° Southwest  Level FlightAware Approximate
Sun 05:19:47 PM 43.3000 -70.6333 245° Southwest 130 150 6,000  Level KA90
Sun 05:20:00 PM 43.4268 -70.5941 203° Southwest  Level FlightAware Approximate
Sun 05:20:36 PM 43.2833 -70.6667 236° Southwest 130 150 6,000  Level KA90
Sun 05:21:30 PM 43.2667 -70.7000 236° Southwest 135 155 6,000 50 Level KA90
Sun 05:22:36 PM 43.2500 -70.7500 245° Southwest 127 146 6,100 48 Climbing KA90
Sun 05:23:35 PM 43.2167 -70.7833 216° Southwest 123 142 6,100 -50 Level KA90
Sun 05:24:36 PM 43.2000 -70.8333 245° Southwest 128 147 6,000 -50 Descending KA90
Sun 05:25:36 PM 43.1833 -70.8667 236° Southwest 126 145 6,000 50 Level KA90
Sun 05:26:36 PM 43.1667 -70.9167 245° Southwest 127 146 6,100 50 Climbing KA90
Sun 05:27:36 PM 43.1500 -70.9500 236° Southwest 133 153 6,100 -53 Level KA90
Sun 05:28:30 PM 43.1333 -71.0000 245° Southwest 130 150 6,000 -50 Descending KA90
Sun 05:29:36 PM 43.1167 -71.0333 236° Southwest 132 152 6,000 48 Level KA90
Sun 05:30:36 PM 43.0833 -71.0667 216° Southwest 134 154 6,100 50 Climbing KA90
Sun 05:31:36 PM 43.0833 -71.1167 270° West 134 154 6,100 -50 Level KA90
Sun 05:32:36 PM 43.0667 -71.1667 245° Southwest 137 158 6,000 -50 Descending KA90
Sun 05:33:36 PM 43.0333 -71.2000 216° Southwest 132 152 6,000 50 Level KA90
Sun 05:34:36 PM 43.0167 -71.2500 246° West 133 153 6,100 50 Climbing KA90
Sun 05:35:36 PM 42.9833 -71.2833 216° Southwest 142 163 6,100 -105 Level KA90
Sun 05:36:30 PM 42.9833 -71.3333 270° West 139 160 5,900 -105 Descending KA90
Sun 05:37:30 PM 42.9667 -71.3667 236° Southwest 132 152 5,900 50 Level KA90
Sun 05:38:30 PM 42.9333 -71.4167 228° Southwest 135 155 6,000 48 Climbing KA90
Sun 05:39:36 PM 42.9167 -71.4500 236° Southwest 130 150 6,000  Level KA90
Sun 05:40:36 PM 42.9000 -71.5000 246° West 122 140 6,000 50 Level KA90
Sun 05:41:36 PM 42.8833 -71.5333 236° Southwest 123 142 6,100 50 Climbing KA90
Sun 05:42:36 PM 42.8500 -71.5833 228° Southwest 134 154 6,100 -50 Level KA90
Sun 05:43:36 PM 42.8333 -71.6167 236° Southwest 134 154 6,000 -50 Descending KA90
Sun 05:44:36 PM 42.8167 -71.6667 246° West 135 155 6,000 -52 Level KA90
Sun 05:45:31 PM 42.8000 -71.7000 236° Southwest 129 148 5,900 -48 Descending KA90
Sun 05:46:42 PM 42.7756 -71.7500 236° Southwest 129 148 5,900  Level Boston Center
Sun 05:47:42 PM 42.7550 -71.7842 231° Southwest 140 161 5,900 -50 Level Boston Center
Sun 05:48:42 PM 42.7281 -71.8297 231° Southwest 140 161 5,800 -50 Descending Boston Center
Sun 05:49:42 PM 42.7011 -71.8581 218° Southwest 130 150 5,800  Level Boston Center
Sun 05:50:42 PM 42.6636 -71.8811 204° Southwest 130 150 5,800 50 Level Boston Center
Sun 05:51:42 PM 42.6325 -71.9039 208° Southwest 135 155 5,900 65 Climbing Boston Center
Sun 05:52:15 PM 42.6097 -71.9294 220° Southwest 142 163 5,900 50 Level Boston Center
Sun 05:53:42 PM 42.5619 -71.9497 197° South 140 161 6,000 47 Climbing Boston Center
Sun 05:54:23 PM 42.5308 -71.9667 202° Southwest 137 158 6,000  Level Boston Center
Sun 05:55:24 PM 42.4975 -71.9894 207° Southwest 138 159 6,000  Level Boston Center
Sun 05:56:25 PM 42.4581 -72.0067 198° South 142 163 6,000  Level Boston Center
Sun 05:57:26 PM 42.4206 -72.0211 196° South 146 168 6,000  Level Boston Center
Sun 05:58:21 PM 42.3892 -72.0436 208° Southwest 139 160 6,000  Level Boston Center
Sun 05:59:27 PM 42.3478 -72.0722 207° Southwest 143 165 6,000 -50 Level Boston Center
Sun 06:00:22 PM 42.3144 -72.0864 197° South 140 161 5,900  Descending Boston Center
Sun 06:01:23 PM 42.2811 -72.1117 209° Southwest 138 159 6,000 98 Climbing Boston Center
Sun 06:02:24 PM 42.2500 -72.1456 219° Southwest 140 161 6,100  Climbing Boston Center
Sun 06:03:19 PM 42.2125 -72.1625 199° South 149 171 6,000 -87 Descending Boston Center
Sun 06:04:42 PM 42.1603 -72.1767 191° South 150 173 5,900  Descending Boston Center
Sun 06:05:42 PM 42.1292 -72.1908 199° South 150 173 6,000  Climbing Boston Center
Sun 06:06:39 PM 42.0833 -72.2164 202° Southwest 149 171 5,900  Descending Boston Center
Sun 06:07:52 PM 42.0375 -72.2361 198° South 146 168 6,000 55 Climbing Boston Center
Sun 06:08:29 PM 42.0147 -72.2528 209° Southwest 147 169 6,000 -61 Level Boston Center
Sun 06:09:30 PM 41.9814 -72.2697 201° Southwest 135 155 5,900 43 Descending Boston Center
Sun 06:10:49 PM 41.9272 -72.2783 187° South 150 173 6,100  Climbing Boston Center
Sun 06:11:56 PM 41.8981 -72.3147 223° Southwest 137 158 5,900 -47 Descending Boston Center
Sun 06:12:56 PM 41.8711 -72.3536 227° Southwest 134 154 6,000 62 Climbing Boston Center
Sun 06:13:33 PM 41.8544 -72.3731 221° Southwest 133 153 6,000  Level Boston Center
Sun 06:14:58 PM 41.8189 -72.4261 228° Southwest 135 155 6,000  Level Boston Center
Sun 06:15:34 PM 41.8064 -72.4456 229° Southwest 135 155 6,000  Level Boston Center
Sun 06:16:35 PM 41.7836 -72.4875 234° Southwest 132 152 6,000  Level Boston Center
Sun 06:17:36 PM 41.7667 -72.5347 244° Southwest 133 153 6,000 49 Level Boston Center
Sun 06:18:37 PM 41.7397 -72.5681 223° Southwest 136 157 6,100 52 Climbing Boston Center
Sun 06:19:32 PM 41.7167 -72.5986 225° Southwest 135 155 6,100 -90 Level Boston Center
Sun 06:20:51 PM 41.6917 -72.6569 240° Southwest 135 155 5,900  Descending Boston Center
Sun 06:21:51 PM 41.6664 -72.6931 227° Southwest 134 154 6,100 50 Climbing Boston Center
Sun 06:22:52 PM 41.6456 -72.7372 238° Southwest 136 157 6,000 -49 Descending Boston Center
Sun 06:23:53 PM 41.6247 -72.7789 236° Southwest 140 161 6,000  Level Boston Center
Sun 06:24:42 PM 41.6036 -72.8122 230° Southwest 137 158 6,000 35 Level Boston Center
Sun 06:26:45 PM 41.5500 -72.8833 225° Southwest 139 160 6,100 33 Climbing New York TRACON
Sun 06:27:45 PM 41.5333 -72.9167 236° Southwest 137 158 6,100  Level New York TRACON
Sun 06:28:45 PM 41.5167 -72.9667 246° West 139 160 6,100  Level New York TRACON
Sun 06:29:51 PM 41.4833 -73.0167 228° Southwest 134 154 6,100  Level New York TRACON
Sun 06:30:51 PM 41.4667 -73.0500 236° Southwest 134 154 6,100  Level New York TRACON
Sun 06:31:45 PM 41.4500 -73.1000 246° West 136 157 6,100  Level New York TRACON
Sun 06:32:45 PM 41.4333 -73.1333 236° Southwest 138 159 6,100 -50 Level New York TRACON
Sun 06:33:45 PM 41.4167 -73.1833 246° West 140 161 6,000 -50 Descending New York TRACON
Sun 06:34:45 PM 41.4167 -73.2333 270° West 137 158 6,000 50 Level New York TRACON
Sun 06:35:45 PM 41.3833 -73.2667 217° Southwest 135 155 6,100  Climbing New York TRACON
Sun 06:36:51 PM 41.3667 -73.3167 246° West 138 159 6,000  Descending New York TRACON
Sun 06:37:45 PM 41.3667 -73.3667 270° West 137 158 6,100  Climbing New York TRACON
Sun 06:38:45 PM 41.3500 -73.4000 236° Southwest 138 159 6,000 -48 Descending New York TRACON
Sun 06:39:51 PM 41.3167 -73.4667 236° Southwest 134 154 6,000 50 Level New York TRACON
Sun 06:40:45 PM 41.3000 -73.5000 236° Southwest 137 158 6,100  Climbing New York TRACON
Sun 06:41:51 PM 41.2833 -73.5500 246° West 138 159 6,000 -50 Descending New York TRACON
Sun 06:42:45 PM 41.2833 -73.5833 270° West 140 161 6,000 158 Level New York TRACON
Sun 06:43:45 PM 41.2667 -73.6333 246° West 137 158 6,300  Climbing New York TRACON
Sun 06:44:45 PM 41.2667 -73.6833 270° West 145 167 6,000 -150 Descending New York TRACON
Sun 06:45:45 PM 41.2667 -73.7333 270° West 139 160 6,000 -100 Level New York TRACON
Sun 06:46:45 PM 41.2667 -73.7833 270° West 144 166 5,800 -550 Descending New York TRACON
Sun 06:47:45 PM 41.2667 -73.8333 270° West 153 176 4,900 -800 Descending New York TRACON
Sun 06:48:45 PM 41.2500 -73.9000 252° West 150 173 4,200 -450 Descending New York TRACON
Sun 06:49:45 PM 41.2333 -73.9500 246° West 147 169 4,000 -50 Descending New York TRACON
Sun 06:50:45 PM 41.2167 -74.0000 246° West 136 157 4,100  Climbing New York TRACON
Sun 06:51:45 PM 41.2167 -74.0500 270° West 142 163 4,000 -100 Descending New York TRACON
Sun 06:52:45 PM 41.1833 -74.0833 217° Southwest 140 161 3,900 -200 Descending New York TRACON
Sun 06:53:45 PM 41.1667 -74.1167 236° Southwest 147 169 3,600 -350 Descending New York TRACON
Sun 06:54:45 PM 41.1167 -74.1500 207° Southwest 149 171 3,200 -300 Descending New York TRACON
Sun 06:55:45 PM 41.0833 -74.1667 201° Southwest 138 159 3,000 -50 Descending New York TRACON
Sun 06:56:45 PM 41.0667 -74.1833 217° Southwest 131 151 3,100 50 Climbing New York TRACON
Sun 06:57:45 PM 41.0333 -74.2167 217° Southwest 130 150 3,100 -50 Level New York TRACON
Sun 06:58:45 PM 41.0000 -74.2333 201° Southwest 130 150 3,000 -50 Descending New York TRACON
Sun 06:59:45 PM 40.9667 -74.2500 201° Southwest 118 136 3,000 -400 Level New York TRACON
Sun 07:00:45 PM 40.9500 -74.2667 217° Southwest 108 124 2,200 -450 Descending New York TRACON
Sun 07:01:45 PM 40.9167 -74.3000 217° Southwest 104 120 2,100 -50 Descending New York TRACON
Sun 07:02:46 PM 40.9000 -74.3167 217° Southwest 111 128 2,100 -50 Level New York TRACON
Sun 07:03:46 PM 40.8667 -74.3500 217° Southwest 94 108 2,000 -350 Descending New York TRACON
Sun 07:04:46 PM 40.8500 -74.3667 217° Southwest 85 98 1,400 -336 Descending New York TRACON
Sun 07:05:51 PM 40.8333 -74.3833 217° Southwest 82 94 1,300 -92 Descending New York TRACON
Sun 07:07:00 PM 40.7914 -74.3973 194° South  Level FlightAware Approximate
Sun 07:14:00 PM 40.7833 -74.4000 210° Southwest  Level FlightAware Approximate
Sun 07:15:00 PM 40.7993 -74.4149 210° Southwest  Level Estimated
Sun 07:16:00 PM 40.7993 -74.4149 210° Southwest  Level Estimated
Sun 07:17:00 PM 40.7993 -74.4149 210° Southwest  Level Estimated

Login

Don't have an account? Register now (free) for customized features, flight alerts, and more!